Startpagina
METAR-TAF:

METAR-TAF

Vliegvelden :

Aeropuerto Adolfo Suárez Madrid-Barajas

Madrid, Spanje

breedte: 40-27N, lengte: 003-33W, hoogte: 609 m

Actueel weer

Dit bericht is 31 minuten geleden gemaakt, om 13:30 UTC
Wind 2 kt uit het noordnoordoosten
Temperatuur 17°C
Vochtigheid 39%
Druk 1024 hPa
Zicht 10 km of meer
Weinig wolken op 5500 ft
Gebroken wolken op 7000 ft

METAR: LEMD 261330Z 02002KT 9999 FEW055 BKN070 17/03 Q1024 NOSIG

Tijdstip: 16:01 (14:01 UTC)

Verwachting

Dit bericht is 3 uur en het 1 minuten geleden gemaakt, om 11:00 UTC
Verwachting geldig van 26 om 12 UTC tot 27 om 18 UTC
Wind 5 kt uit variabele richting
Zicht 10 km of meer
Verspreide wolken op 4500 ft
Tijdelijke
van 26 om 12 UTC tot 26 om 16 UTC
Wind 10 kt uit het westen

TAF: LEMD 261100Z 2612/2718 VRB05KT 9999 SCT045 TX17/2615Z TN06/2706Z TEMPO 2612/2616 28010KT

Waarnemingen en weersverwachtingen van meer dan 4000 vliegvelden (METAR en TAF).

De beschikbare stations zijn de gele en rode punten op de kaart.

Ga met uw muis naar het station om de naam te zien.

Klik dan om waarnemingen en weersverwachtingen te zien.

kaart wijzigen: klik op de groene knoppen met een zwart kruis om in te zoomen, op de groene knop met een streepje om uit te zoomen of op de groene pijlen voor aangrenzende kaarten.


METAR-TAF: